AF1 KADW-KPBI
Flight info
| Callsign | AF1 |
|---|---|
| Flight time | N/A |
| Altitude | 36000 |
| Route | JEFSN2 RRSIN GSO JUSEE Q83 ROYCO PRMUS KENLL CPTAN3 |
| Aircraft | B742/H-SDFHIRWXY/L |
Departure
| Time | 2026-04-30 19:02 |
|---|---|
| Airport | Joint Base Andrews (KADW) |
Arrival
| Time | N/A |
|---|---|
| Airport | Palm Beach International Airport (KPBI) |
| Time | Latitude | Longitude | Altitude | Speed | Heading |
|---|---|---|---|---|---|
| 2026-04-30 18:51 | 38.80391 | -76.87564 | 287 ft | 0 kts | 2° |
| 2026-04-30 18:58 | 38.80406 | -76.87561 | 284 ft | 4 kts | 24° |
| 2026-04-30 18:58 | 38.80418 | -76.87541 | 284 ft | 3 kts | 78° |
| 2026-04-30 18:59 | 38.80409 | -76.87517 | 284 ft | 9 kts | 136° |
| 2026-04-30 19:00 | 38.80085 | -76.87447 | 284 ft | 40 kts | 179° |
| 2026-04-30 19:00 | 38.79835 | -76.87438 | 279 ft | 9 kts | 152° |
| 2026-04-30 19:00 | 38.79787 | -76.87367 | 279 ft | 17 kts | 107° |
| 2026-04-30 19:01 | 38.79890 | -76.87058 | 277 ft | 18 kts | 355° |
| 2026-04-30 19:01 | 38.80289 | -76.87066 | 280 ft | 113 kts | 0° |
| 2026-04-30 19:02 | 38.82603 | -76.87203 | 1900 ft | 176 kts | 327° |
| 2026-04-30 19:02 | 38.83913 | -76.89827 | 4171 ft | 195 kts | 275° |
| 2026-04-30 19:03 | 38.83873 | -76.93691 | 6329 ft | 238 kts | 271° |
| 2026-04-30 19:03 | 38.83881 | -76.98157 | 9153 ft | 257 kts | 270° |
| 2026-04-30 19:04 | 38.83889 | -77.02739 | 12274 ft | 261 kts | 268° |
| 2026-04-30 19:04 | 38.83882 | -77.07409 | 15084 ft | 265 kts | 270° |
| 2026-04-30 19:05 | 38.85039 | -77.12016 | 17609 ft | 286 kts | 296° |
| 2026-04-30 19:05 | 38.87274 | -77.16377 | 19838 ft | 297 kts | 296° |
| 2026-04-30 19:06 | 38.89032 | -77.21152 | 22041 ft | 297 kts | 278° |
| 2026-04-30 19:06 | 38.89260 | -77.23783 | 23112 ft | 298 kts | 267° |
| 2026-04-30 19:06 | 38.88312 | -77.28987 | 24904 ft | 308 kts | 245° |
| 2026-04-30 19:07 | 38.85517 | -77.33300 | 26617 ft | 326 kts | 226° |
| 2026-04-30 19:07 | 38.83760 | -77.35177 | 27449 ft | 331 kts | 224° |
| 2026-04-30 19:08 | 38.79646 | -77.38126 | 29078 ft | 354 kts | 206° |
| 2026-04-30 19:08 | 38.74750 | -77.39704 | 30514 ft | 369 kts | 201° |
| 2026-04-30 19:08 | 38.72242 | -77.40474 | 31141 ft | 373 kts | 201° |
| 2026-04-30 19:09 | 38.67117 | -77.42052 | 32334 ft | 384 kts | 201° |
| 2026-04-30 19:09 | 38.64495 | -77.42852 | 32860 ft | 389 kts | 201° |
| 2026-04-30 19:09 | 38.61845 | -77.43678 | 33428 ft | 392 kts | 205° |
| 2026-04-30 19:10 | 38.56923 | -77.46521 | 34283 ft | 393 kts | 215° |
| 2026-04-30 19:10 | 38.51955 | -77.49950 | 34667 ft | 417 kts | 214° |
| 2026-04-30 19:11 | 38.49368 | -77.51718 | 34991 ft | 424 kts | 214° |
| 2026-04-30 19:11 | 38.44139 | -77.55308 | 35765 ft | 434 kts | 214° |
| 2026-04-30 19:11 | 38.41450 | -77.57157 | 35873 ft | 445 kts | 214° |
| 2026-04-30 19:12 | 38.38673 | -77.59061 | 35881 ft | 458 kts | 214° |
| 2026-04-30 19:12 | 38.35826 | -77.61008 | 35886 ft | 471 kts | 214° |
| 2026-04-30 19:12 | 38.32900 | -77.63005 | 35888 ft | 482 kts | 214° |
| 2026-04-30 19:13 | 38.27386 | -77.67781 | 35877 ft | 476 kts | 225° |
| 2026-04-30 19:13 | 38.22322 | -77.73214 | 35863 ft | 475 kts | 225° |
| 2026-04-30 19:14 | 38.17273 | -77.78619 | 35875 ft | 475 kts | 225° |
| 2026-04-30 19:14 | 38.12248 | -77.83991 | 35869 ft | 475 kts | 225° |
| 2026-04-30 19:15 | 38.07191 | -77.89383 | 35869 ft | 475 kts | 225° |
| 2026-04-30 19:15 | 37.99600 | -77.97461 | 35879 ft | 474 kts | 226° |
| 2026-04-30 19:16 | 37.94529 | -78.02846 | 35885 ft | 474 kts | 226° |
| 2026-04-30 19:17 | 37.86962 | -78.10860 | 35882 ft | 474 kts | 226° |
| 2026-04-30 19:17 | 37.79354 | -78.18896 | 35884 ft | 474 kts | 226° |
| 2026-04-30 19:18 | 37.71738 | -78.26918 | 35876 ft | 475 kts | 226° |
| 2026-04-30 19:19 | 37.66758 | -78.32151 | 35876 ft | 475 kts | 226° |
| 2026-04-30 19:19 | 37.59174 | -78.40100 | 35873 ft | 473 kts | 226° |
| 2026-04-30 19:20 | 37.54103 | -78.45409 | 35872 ft | 473 kts | 226° |
| 2026-04-30 19:21 | 37.46498 | -78.53344 | 35876 ft | 473 kts | 226° |
| 2026-04-30 19:22 | 37.36314 | -78.63851 | 35877 ft | 472 kts | 226° |
| 2026-04-30 19:23 | 37.20095 | -78.77757 | 35888 ft | 495 kts | 209° |
| 2026-04-30 19:24 | 37.10474 | -78.82332 | 35894 ft | 486 kts | 215° |
| 2026-04-30 19:25 | 36.95038 | -78.91079 | 35842 ft | 487 kts | 215° |
| 2026-04-30 19:26 | 36.82711 | -78.97924 | 35871 ft | 487 kts | 214° |
| 2026-04-30 19:27 | 36.73443 | -79.03066 | 35878 ft | 488 kts | 214° |
| 2026-04-30 19:28 | 36.64117 | -79.08212 | 35893 ft | 488 kts | 214° |
| 2026-04-30 19:29 | 36.51679 | -79.15046 | 35898 ft | 488 kts | 214° |
| 2026-04-30 19:30 | 36.39223 | -79.21867 | 35898 ft | 489 kts | 215° |
| 2026-04-30 19:31 | 36.26806 | -79.28644 | 35902 ft | 489 kts | 215° |
| 2026-04-30 19:31 | 36.17546 | -79.33684 | 35888 ft | 490 kts | 215° |
| 2026-04-30 19:32 | 36.12349 | -79.36505 | 35885 ft | 490 kts | 215° |
| 2026-04-30 19:32 | 36.06104 | -79.39892 | 35892 ft | 490 kts | 215° |
| 2026-04-30 19:33 | 35.99855 | -79.43273 | 35901 ft | 490 kts | 215° |
| 2026-04-30 19:33 | 35.93608 | -79.46650 | 35900 ft | 490 kts | 215° |
| 2026-04-30 19:34 | 35.87359 | -79.50019 | 35897 ft | 490 kts | 216° |
| 2026-04-30 19:35 | 35.77995 | -79.55059 | 35886 ft | 489 kts | 216° |
| 2026-04-30 19:35 | 35.71778 | -79.58399 | 35906 ft | 490 kts | 216° |
| 2026-04-30 19:36 | 35.65534 | -79.61746 | 35903 ft | 490 kts | 216° |
| 2026-04-30 19:36 | 35.56156 | -79.66764 | 35893 ft | 490 kts | 216° |
| 2026-04-30 19:37 | 35.49907 | -79.70099 | 35897 ft | 490 kts | 216° |
| 2026-04-30 19:37 | 35.43645 | -79.73437 | 35884 ft | 490 kts | 216° |
| 2026-04-30 19:38 | 35.37432 | -79.76742 | 35880 ft | 490 kts | 216° |
| 2026-04-30 19:38 | 35.31173 | -79.80066 | 35831 ft | 489 kts | 216° |
| 2026-04-30 19:39 | 35.24923 | -79.83381 | 35877 ft | 489 kts | 216° |
| 2026-04-30 19:39 | 35.18659 | -79.86696 | 35876 ft | 489 kts | 216° |
| 2026-04-30 19:40 | 35.12397 | -79.90006 | 35893 ft | 490 kts | 216° |
| 2026-04-30 19:40 | 35.06172 | -79.93291 | 35904 ft | 490 kts | 216° |
| 2026-04-30 19:41 | 34.99914 | -79.96586 | 35902 ft | 490 kts | 216° |